Weather reports worldwide

Advertisment
Teruel, Spain (8235): temperature & dewpoint: 09.12.2019 19:00:00 - 15.12.2019 19:00:00 (CET)Teruel, Spain (8235): wind speed: 09.12.2019 19:00:00 - 15.12.2019 19:00:00 (CET)Teruel, Spain (8235): wind direction: 09.12.2019 19:00:00 - 15.12.2019 19:00:00 (CET)Teruel, Spain (8235): visibility: 09.12.2019 19:00:00 - 15.12.2019 19:00:00 (CET)Teruel, Spain (8235): precipitation: 09.12.2019 19:00:00 - 15.12.2019 19:00:00 (CET)
Date & Time tt [°C] td [°C] ff [km/h] ff [kn] dd vv [km] rr [mm]
15.12.2019 19:00:00 - - - - - - -
15.12.2019 18:00:00 9,7 3,0 2 1 S 20 0,0
15.12.2019 17:00:00 12,5 3,2 2 1 SE 20 0,0
15.12.2019 16:00:00 13,7 3,2 4 2 SSE 19 -
15.12.2019 15:00:00 13,5 2,7 4 2 SSE 16 0,0
15.12.2019 14:00:00 11,6 2,3 4 2 ENE 20 0,0
15.12.2019 13:00:00 10,0 2,6 4 2 SE 20 -
15.12.2019 12:00:00 7,1 2,4 4 2 SW 20 0,0
15.12.2019 11:00:00 3,5 0,9 2 1 SW 20 0,0
15.12.2019 10:00:00 -1,2 -1,8 4 2 WSW 19 -
15.12.2019 09:00:00 -2,8 -3,9 2 1 SW 19 0,0
15.12.2019 08:00:00 -2,2 -3,2 0 0 N 19 0,0
15.12.2019 07:00:00 -1,8 -2,8 2 1 NNW 18 -
15.12.2019 06:00:00 -2,0 -2,8 2 1 N 14 0,0
15.12.2019 05:00:00 -1,7 -2,5 2 1 ENE 17 0,0
15.12.2019 04:00:00 -1,8 -2,6 2 1 NNE 14 -
15.12.2019 03:00:00 -1,0 -1,8 2 1 N 14 0,0
15.12.2019 02:00:00 -0,2 -1,2 2 1 NNW 18 0,0
15.12.2019 01:00:00 0,1 -0,8 4 2 W 19 -
15.12.2019 00:00:00 0,5 -1,1 2 1 WSW 18 0,0
14.12.2019 23:00:00 1,6 0,3 2 1 W 19 0,0
14.12.2019 22:00:00 2,4 0,8 2 1 W 19 -
14.12.2019 21:00:00 3,7 1,7 4 2 W 19 0,0
14.12.2019 20:00:00 5,2 2,4 2 1 N 18 0,0
14.12.2019 19:00:00 7,1 3,3 4 2 N 20 -
14.12.2019 18:00:00 9,2 3,8 2 1 N 20 0,0
14.12.2019 17:00:00 11,6 4,1 2 1 NE 20 0,0
14.12.2019 16:00:00 12,3 4,3 4 2 SW 20 -
14.12.2019 15:00:00 12,1 4,3 4 2 SW 20 0,0
14.12.2019 14:00:00 11,8 4,7 5 3 S 20 0,0
14.12.2019 13:00:00 9,9 4,7 4 2 ESE 20 -
14.12.2019 12:00:00 7,6 4,7 4 2 ESE 19 0,0
14.12.2019 11:00:00 3,5 2,3 2 1 NE 19 0,0
14.12.2019 10:00:00 1,3 0,6 2 1 SE 20 -
14.12.2019 09:00:00 -0,1 -0,5 5 3 W 18 0,0
14.12.2019 08:00:00 -0,1 -0,8 2 1 NW 18 0,0
14.12.2019 07:00:00 0,1 -0,8 2 1 NNW 19 -
14.12.2019 06:00:00 0,6 -0,1 4 2 N 20 0,0
14.12.2019 05:00:00 1,2 0,3 4 2 W 19 0,0
14.12.2019 04:00:00 2,1 0,8 2 1 NNW 20 -
14.12.2019 03:00:00 3,5 1,9 2 1 N 20 0,0
14.12.2019 02:00:00 4,9 2,6 5 3 N 20 0,0
14.12.2019 01:00:00 6,6 3,2 2 1 WNW 20 -
14.12.2019 00:00:00 7,2 3,6 4 2 N 20 0,0
13.12.2019 23:00:00 8,7 4,3 5 3 N 20 0,0
13.12.2019 22:00:00 8,9 5,1 4 2 ENE 20 -
13.12.2019 21:00:00 10,7 5,7 8 4 NNW 20 0,0
13.12.2019 20:00:00 11,2 5,7 5 3 N 20 0,0
13.12.2019 19:00:00 12,4 6,0 4 2 E 20 -
13.12.2019 18:00:00 12,9 5,8 5 3 NW 20 0,0
13.12.2019 17:00:00 14,6 5,9 9 5 WNW 20 0,0
13.12.2019 16:00:00 14,9 5,7 18 10 NW 20 -
13.12.2019 15:00:00 15,0 5,5 18 10 NW 20 0,0
13.12.2019 14:00:00 15,5 5,4 21 11 NW 20 0,0
13.12.2019 13:00:00 16,1 5,7 15 8 W 20 -
13.12.2019 12:00:00 14,2 5,8 4 2 SSW 20 0,0
13.12.2019 11:00:00 13,2 5,8 9 5 WNW 20 0,0
13.12.2019 10:00:00 12,3 5,7 11 6 WNW 20 -
13.12.2019 09:00:00 11,4 5,7 11 6 N 20 0,0
13.12.2019 08:00:00 10,9 6,0 5 3 NNW 20 0,0
13.12.2019 07:00:00 10,0 6,3 4 2 NE 20 -
13.12.2019 06:00:00 9,8 6,0 11 6 SSE 20 0,0
13.12.2019 05:00:00 10,6 5,8 5 3 S 20 0,0
13.12.2019 04:00:00 9,4 5,4 4 2 SW 20 -
13.12.2019 03:00:00 8,8 4,6 5 3 SE 20 0,0
13.12.2019 02:00:00 8,4 4,2 4 2 E 20 0,0
13.12.2019 01:00:00 8,1 3,7 4 2 ENE 20 -
13.12.2019 00:00:00 7,9 3,4 4 2 NE 20 0,0
12.12.2019 23:00:00 7,4 2,7 2 1 NE 20 0,0
12.12.2019 22:00:00 7,8 2,7 8 4 SSW 20 -
12.12.2019 21:00:00 7,2 2,3 9 5 S 20 0,0
12.12.2019 20:00:00 6,7 2,0 11 6 SSE 20 0,0
12.12.2019 19:00:00 6,3 1,6 15 8 S 20 -
12.12.2019 18:00:00 6,1 1,4 15 8 S 20 0,0
12.12.2019 17:00:00 7,1 0,5 9 5 SSW 20 0,0
12.12.2019 16:00:00 7,6 0,3 22 12 WSW 20 -
12.12.2019 15:00:00 7,6 0,6 16 9 WSW 20 0,0
12.12.2019 14:00:00 8,0 0,2 22 12 WSW 20 0,0
12.12.2019 13:00:00 8,5 0,5 13 7 NW 20 -
12.12.2019 12:00:00 8,6 0,6 13 7 NW 20 0,0
12.12.2019 11:00:00 3,5 0,4 2 1 ENE 20 0,0
12.12.2019 10:00:00 -0,2 -1,2 2 1 W 20 -
12.12.2019 09:00:00 -2,4 -3,2 2 1 N 18 0,0
12.12.2019 08:00:00 -2,5 -3,5 4 2 NNE 20 0,0
12.12.2019 07:00:00 -2,2 -3,2 2 1 ENE 20 -
12.12.2019 06:00:00 -2,1 -2,9 4 2 N 20 0,0
12.12.2019 05:00:00 -2,0 -3,1 2 1 E 20 0,0
12.12.2019 04:00:00 -2,0 -3,1 4 2 ESE 20 -
12.12.2019 03:00:00 -1,9 -3,3 4 2 WSW 20 0,0
12.12.2019 02:00:00 -1,3 -3,0 2 1 WSW 20 0,0
12.12.2019 01:00:00 -1,2 -2,8 4 2 SSW 20 -
12.12.2019 00:00:00 0,7 -2,0 4 2 W 20 0,0
11.12.2019 23:00:00 2,2 -1,1 4 2 NW 20 0,0
11.12.2019 22:00:00 2,8 -0,7 5 3 NNW 20 -
11.12.2019 21:00:00 3,2 -0,4 8 4 NW 20 0,0
11.12.2019 20:00:00 3,2 -0,8 5 3 N 20 0,0
11.12.2019 19:00:00 5,2 0,6 8 4 N 20 -
11.12.2019 18:00:00 6,8 1,7 11 6 NW 20 0,0
11.12.2019 17:00:00 8,1 2,7 13 7 NNW 20 0,0
11.12.2019 16:00:00 7,4 3,3 16 9 N 20 -
11.12.2019 15:00:00 9,0 4,2 9 5 NNW 20 0,0
11.12.2019 14:00:00 5,7 1,4 4 2 SSW 15 0,0
11.12.2019 13:00:00 4,8 0,9 2 1 N 19 -
11.12.2019 12:00:00 4,5 0,1 2 1 WNW 20 0,0
11.12.2019 11:00:00 3,6 -0,2 4 2 NNE 20 0,0
11.12.2019 10:00:00 -0,4 -1,2 2 1 SE 20 -
11.12.2019 09:00:00 -2,3 -3,1 4 2 W 17 0,0
11.12.2019 08:00:00 -2,7 -4,0 2 1 WNW 18 0,0
11.12.2019 07:00:00 -2,6 -3,7 2 1 WNW 20 -
11.12.2019 06:00:00 -2,2 -3,3 4 2 W 19 0,0
11.12.2019 05:00:00 -2,1 -3,2 2 1 NNW 14 0,0
11.12.2019 04:00:00 -1,5 -2,5 2 1 W 19 -
11.12.2019 03:00:00 -1,2 -2,3 4 2 NW 13 0,0
11.12.2019 02:00:00 -1,2 -2,5 2 1 NNE 18 0,0
11.12.2019 01:00:00 -0,5 -1,9 4 2 NW 3,1 -
11.12.2019 00:00:00 -0,1 -1,4 8 4 W 2,2 0,0
10.12.2019 23:00:00 0,5 -1,1 4 2 WNW 2,8 0,0
10.12.2019 22:00:00 1,6 -0,7 2 1 NNW 9 -
10.12.2019 21:00:00 3,2 -0,1 2 1 NNW 1,9 0,0
10.12.2019 20:00:00 4,4 0,5 2 1 NW 8 0,0
10.12.2019 19:00:00 6,0 0,7 2 1 N 15 -
10.12.2019 18:00:00 8,4 1,1 2 1 SE 15 0,0
10.12.2019 17:00:00 11,3 1,0 4 2 NW 12 0,0
10.12.2019 16:00:00 13,1 0,5 4 2 SW 20 -
10.12.2019 15:00:00 11,3 1,2 5 3 NNW 20 0,0
10.12.2019 14:00:00 10,3 0,6 4 2 NE 20 0,0
10.12.2019 13:00:00 9,0 1,2 4 2 E 20 -
10.12.2019 12:00:00 6,6 1,3 5 3 S 20 0,0
10.12.2019 11:00:00 3,8 1,0 4 2 SE 18 0,0
10.12.2019 10:00:00 1,8 0,2 5 3 SW 19 -
10.12.2019 09:00:00 0,5 -1,1 11 6 W 17 0,0
10.12.2019 08:00:00 1,2 -0,7 9 5 W 17 0,0
10.12.2019 07:00:00 0,9 -1,0 5 3 W 20 -
10.12.2019 06:00:00 1,3 -0,9 9 5 W 19 0,0
10.12.2019 05:00:00 2,2 -0,4 5 3 N 20 0,0
10.12.2019 04:00:00 2,0 -0,1 9 5 N 20 -
10.12.2019 03:00:00 2,9 0,0 9 5 N 20 0,0
10.12.2019 02:00:00 3,7 0,4 9 5 N 20 0,0
10.12.2019 01:00:00 3,8 0,3 11 6 N 20 -
10.12.2019 00:00:00 4,2 0,7 11 6 N 20 0,0
09.12.2019 23:00:00 4,1 0,8 5 3 NW 17 0,0
09.12.2019 22:00:00 4,6 1,6 5 3 N 19 -
09.12.2019 21:00:00 5,1 1,8 9 5 WNW 20 0,0
09.12.2019 20:00:00 5,5 1,2 4 2 WNW 20 0,0
09.12.2019 19:00:00 6,1 0,6 4 2 N 20 -

tt = temperature
td = dewpoint
ff = wind speed
dd = wind direction
vv = visibility
rr = precipitation

Next stations